Kandilousa — SYIF — position and weather

sailwx.info

Track history (hours):
 
Tides and Currents Weather Stations Pressure Air Temp Water Temp Dewpoint Dewpoint Depression Visibility Wind Speed Wind Dir Waves Ship Positions

Kandilousa

Last reported at 2015-Mar-01 03:06 UTC. Time now 2015-Mar-01 15:15 UTC.
Position N 38°48' E 118°08'.

Length 183 m; draft 12.1 m.

Type: Tanker. MMSI: 239354000.

Date/timePositionNaut miles runAvg speedWind from/ knotsBaromVisibWave heightAir tempDewpointWater temp
2015-Mar-01 03:06N 38°48' E 118°08'810.9
2015-Mar-01 02:20N 38°52' E 117°59'8 9.7
2015-Mar-01 01:33N 38°56' E 117°50'4 2.8
2015-Mar-01 00:10N 38°57' E 117°46'0 0.0
2015-Feb-28 23:28N 38°57' E 117°46'0 0.0
2015-Feb-28 22:28N 38°57' E 117°46'0 0.0
2015-Feb-28 21:28N 38°57' E 117°46'0 0.0
2015-Feb-28 20:28N 38°57' E 117°46'0 0.0
2015-Feb-28 19:28N 38°57' E 117°46'0 0.0
2015-Feb-28 18:28N 38°57' E 117°46'0 0.0
2015-Feb-28 17:28N 38°57' E 117°46'0 0.0
2015-Feb-28 16:28N 38°57' E 117°46'0 0.0
2015-Feb-28 15:22N 38°57' E 117°46'0 0.0
2015-Feb-28 14:22N 38°57' E 117°46'0 0.0
2015-Feb-28 13:16N 38°57' E 117°46'0 0.0
2015-Feb-28 12:28N 38°57' E 117°46'0 0.0
2015-Feb-28 11:28N 38°57' E 117°46'0 0.0
2015-Feb-28 10:28N 38°57' E 117°46'0 0.0
2015-Feb-28 09:28N 38°57' E 117°46'0 0.0
2015-Feb-28 08:28N 38°57' E 117°46'0 0.0
2015-Feb-28 06:10N 38°57' E 117°46'0 0.0
2015-Feb-28 05:28N 38°57' E 117°46'0 0.0
2015-Feb-28 04:28N 38°57' E 117°46'0 0.0
2015-Feb-28 03:28N 38°57' E 117°46'0 0.0
2015-Feb-28 02:28N 38°57' E 117°46'0 0.0
2015-Feb-27 23:22N 38°57' E 117°46'0 0.0
2015-Feb-27 22:28N 38°57' E 117°46'0 0.0
2015-Feb-27 21:28N 38°57' E 117°46'0 0.0
2015-Feb-27 20:22N 38°57' E 117°46'0 0.0
2015-Feb-27 19:28N 38°57' E 117°46'0 0.0
2015-Feb-27 18:28N 38°57' E 117°46'0 0.0
2015-Feb-27 17:28N 38°57' E 117°46'0 0.0
2015-Feb-27 16:28N 38°57' E 117°46'0 0.0
2015-Feb-27 15:28N 38°57' E 117°46'0 0.0
2015-Feb-27 14:28N 38°57' E 117°46'0 0.0
2015-Feb-27 13:28N 38°57' E 117°46'0 0.0
2015-Feb-27 12:28N 38°57' E 117°46'0 0.0
2015-Feb-27 11:28N 38°57' E 117°46'0 0.0
2015-Feb-27 10:28N 38°57' E 117°46'0 0.0
2015-Feb-27 09:04N 38°57' E 117°46'0 0.0
2015-Feb-27 08:28N 38°57' E 117°46'0 0.0
2015-Feb-27 07:28N 38°57' E 117°46'0 0.0
2015-Feb-27 06:28N 38°57' E 117°46'0 0.0
2015-Feb-27 05:16N 38°57' E 117°46'0 0.0
2015-Feb-27 03:16N 38°57' E 117°46'0 0.0
2015-Feb-27 02:28N 38°57' E 117°46'0 0.0
2015-Feb-27 01:28N 38°57' E 117°46'0 0.0
2015-Feb-27 00:28N 38°57' E 117°46'0 0.0
2015-Feb-26 23:28N 38°57' E 117°46'0 0.0
2015-Feb-26 22:28N 38°57' E 117°46'0 0.0
2015-Feb-26 21:16N 38°57' E 117°46'0 0.0
2015-Feb-26 18:28N 38°57' E 117°46'0 0.0
2015-Feb-26 17:22N 38°57' E 117°46'0 0.0
2015-Feb-26 16:22N 38°57' E 117°46'0 0.0
2015-Feb-26 15:28N 38°57' E 117°46'0 0.0
2015-Feb-26 14:22N 38°57' E 117°46'0 0.0
2015-Feb-26 13:28N 38°57' E 117°46'0 0.0
2015-Feb-26 12:28N 38°57' E 117°46'0 0.0
2015-Feb-26 11:28N 38°57' E 117°46'0 0.0
2015-Feb-26 10:28N 38°57' E 117°46'0 0.0
2015-Feb-26 09:10N 38°57' E 117°46'0 0.0
2015-Feb-26 08:28N 38°57' E 117°46'0 0.0
2015-Feb-26 07:28N 38°57' E 117°46'0 0.0
2015-Feb-26 06:28N 38°57' E 117°46'0 0.0
2015-Feb-26 05:33N 38°57' E 117°46'0 0.0
2015-Feb-26 04:34N 38°57' E 117°46'5 4.6
2015-Feb-26 03:34N 38°56' E 117°51'9 9.1
2015-Feb-26 02:34N 38°51' E 118°01'6 6.5
2015-Feb-26 01:33N 38°50' E 118°09'219 7.2
2015-Feb-24 19:20N 37°44' E 122°35'910.4
2015-Feb-24 18:27N 37°38' E 122°44'  
Track history (hours):
 
Tides and Currents Weather Stations Pressure Air Temp Water Temp Dewpoint Dewpoint Depression Visibility Wind Speed Wind Dir Waves Ship Positions

Kandilousa

Last reported at 2015-Mar-01 03:06 UTC. Time now 2015-Mar-01 15:15 UTC.
Position N 38°48' E 118°08'.

Length 183 m; draft 12.1 m.

Type: Tanker. MMSI: 239354000.

Date/timePositionNaut miles runAvg speedWind from/ knotsBaromVisibWave heightAir tempDewpointWater temp
2015-Mar-01 03:06N 38°48' E 118°08'810.9
2015-Mar-01 02:20N 38°52' E 117°59'8 9.7
2015-Mar-01 01:33N 38°56' E 117°50'4 2.8
2015-Mar-01 00:10N 38°57' E 117°46'0 0.0
2015-Feb-28 23:28N 38°57' E 117°46'0 0.0
2015-Feb-28 22:28N 38°57' E 117°46'0 0.0
2015-Feb-28 21:28N 38°57' E 117°46'0 0.0
2015-Feb-28 20:28N 38°57' E 117°46'0 0.0
2015-Feb-28 19:28N 38°57' E 117°46'0 0.0
2015-Feb-28 18:28N 38°57' E 117°46'0 0.0
2015-Feb-28 17:28N 38°57' E 117°46'0 0.0
2015-Feb-28 16:28N 38°57' E 117°46'0 0.0
2015-Feb-28 15:22N 38°57' E 117°46'0 0.0
2015-Feb-28 14:22N 38°57' E 117°46'0 0.0
2015-Feb-28 13:16N 38°57' E 117°46'0 0.0
2015-Feb-28 12:28N 38°57' E 117°46'0 0.0
2015-Feb-28 11:28N 38°57' E 117°46'0 0.0
2015-Feb-28 10:28N 38°57' E 117°46'0 0.0
2015-Feb-28 09:28N 38°57' E 117°46'0 0.0
2015-Feb-28 08:28N 38°57' E 117°46'0 0.0
2015-Feb-28 06:10N 38°57' E 117°46'0 0.0
2015-Feb-28 05:28N 38°57' E 117°46'0 0.0
2015-Feb-28 04:28N 38°57' E 117°46'0 0.0
2015-Feb-28 03:28N 38°57' E 117°46'0 0.0
2015-Feb-28 02:28N 38°57' E 117°46'0 0.0
2015-Feb-27 23:22N 38°57' E 117°46'0 0.0
2015-Feb-27 22:28N 38°57' E 117°46'0 0.0
2015-Feb-27 21:28N 38°57' E 117°46'0 0.0
2015-Feb-27 20:22N 38°57' E 117°46'0 0.0
2015-Feb-27 19:28N 38°57' E 117°46'0 0.0
2015-Feb-27 18:28N 38°57' E 117°46'0 0.0
2015-Feb-27 17:28N 38°57' E 117°46'0 0.0
2015-Feb-27 16:28N 38°57' E 117°46'0 0.0
2015-Feb-27 15:28N 38°57' E 117°46'0 0.0
2015-Feb-27 14:28N 38°57' E 117°46'0 0.0
2015-Feb-27 13:28N 38°57' E 117°46'0 0.0
2015-Feb-27 12:28N 38°57' E 117°46'0 0.0
2015-Feb-27 11:28N 38°57' E 117°46'0 0.0
2015-Feb-27 10:28N 38°57' E 117°46'0 0.0
2015-Feb-27 09:04N 38°57' E 117°46'0 0.0
2015-Feb-27 08:28N 38°57' E 117°46'0 0.0
2015-Feb-27 07:28N 38°57' E 117°46'0 0.0
2015-Feb-27 06:28N 38°57' E 117°46'0 0.0
2015-Feb-27 05:16N 38°57' E 117°46'0 0.0
2015-Feb-27 03:16N 38°57' E 117°46'0 0.0
2015-Feb-27 02:28N 38°57' E 117°46'0 0.0
2015-Feb-27 01:28N 38°57' E 117°46'0 0.0
2015-Feb-27 00:28N 38°57' E 117°46'0 0.0
2015-Feb-26 23:28N 38°57' E 117°46'0 0.0
2015-Feb-26 22:28N 38°57' E 117°46'0 0.0
2015-Feb-26 21:16N 38°57' E 117°46'0 0.0
2015-Feb-26 18:28N 38°57' E 117°46'0 0.0
2015-Feb-26 17:22N 38°57' E 117°46'0 0.0
2015-Feb-26 16:22N 38°57' E 117°46'0 0.0
2015-Feb-26 15:28N 38°57' E 117°46'0 0.0
2015-Feb-26 14:22N 38°57' E 117°46'0 0.0
2015-Feb-26 13:28N 38°57' E 117°46'0 0.0
2015-Feb-26 12:28N 38°57' E 117°46'0 0.0
2015-Feb-26 11:28N 38°57' E 117°46'0 0.0
2015-Feb-26 10:28N 38°57' E 117°46'0 0.0
2015-Feb-26 09:10N 38°57' E 117°46'0 0.0
2015-Feb-26 08:28N 38°57' E 117°46'0 0.0
2015-Feb-26 07:28N 38°57' E 117°46'0 0.0
2015-Feb-26 06:28N 38°57' E 117°46'0 0.0
2015-Feb-26 05:33N 38°57' E 117°46'0 0.0
2015-Feb-26 04:34N 38°57' E 117°46'5 4.6
2015-Feb-26 03:34N 38°56' E 117°51'9 9.1
2015-Feb-26 02:34N 38°51' E 118°01'6 6.5
2015-Feb-26 01:33N 38°50' E 118°09'219 7.2
2015-Feb-24 19:20N 37°44' E 122°35'910.4
2015-Feb-24 18:27N 37°38' E 122°44'  

Dump ship's entire track history